Time;durP1;ratioP1;P1;durP2;ratioP2;P2;SDS_P1;SDS_P2;PMS_P1;PMS_P2;Temp;Humidity;BMP_temperature;BMP_pressure;BME280_temperature;BME280_humidity;BME280_pressure;Samples;Min_cycle;Max_cycle;Signal;HPM_P1;HPM_P2
2021/03/24 06:51:21;;;;;;;26.58;16.08;;;;;;;;;;5020385;23;20056;-76
2021/03/24 06:54:08;;;;;;;29.55;17.33;;;;;;;;;;4902303;29;20133;-76
2021/03/24 06:56:53;;;;;;;29.90;16.95;;;;;;;;;;4901823;29;20038;-75
2021/03/24 06:59:38;;;;;;;33.22;16.35;;;;;;;;;;5056402;23;22606;-76
2021/03/24 07:02:23;;;;;;;31.77;19.55;;;;;;;;;;4872842;29;20132;-76
2021/03/24 07:05:07;;;;;;;28.08;17.00;;;;;;;;;;4861571;29;20108;-77
2021/03/24 07:07:40;;;;;;;30.58;17.10;;;;;;;;;;4859592;29;20030;-76
2021/03/24 07:10:24;;;;;;;27.08;16.02;;;;;;;;;;4868531;29;20025;-74
2021/03/24 07:12:50;;;;;;;27.08;16.67;;;;;;;;;;4897583;29;20033;-73
2021/03/24 07:15:24;;;;;;;27.45;17.35;;;;;;;;;;4882374;29;20021;-75
2021/03/24 07:18:09;;;;;;;26.20;15.23;;;;;;;;;;4870004;29;20033;-77
2021/03/24 07:20:54;;;;;;;27.35;14.70;;;;;;;;;;4876800;29;20041;-74
2021/03/24 07:23:44;;;;;;;26.77;16.63;;;;;;;;;;4877120;29;20025;-71
2021/03/24 07:26:28;;;;;;;29.38;16.95;;;;;;;;;;4874364;29;20112;-75
2021/03/24 07:29:13;;;;;;;25.35;16.20;;;;;;;;;;4867862;29;20029;-74
2021/03/24 07:31:39;;;;;;;28.63;16.52;;;;;;;;;;4871022;29;20029;-73
2021/03/24 07:34:12;;;;;;;27.38;15.00;;;;;;;;;;4878202;29;20160;-75
2021/03/24 07:36:44;;;;;;;26.65;16.05;;;;;;;;;;4876776;29;20041;-75
2021/03/24 07:39:10;;;;;;;27.08;15.98;;;;;;;;;;4876471;29;20033;-74
2021/03/24 07:41:36;;;;;;;28.27;16.63;;;;;;;;;;4876481;29;20084;-74
2021/03/24 07:44:08;;;;;;;24.60;15.50;;;;;;;;;;4876435;29;20613;-76
2021/03/24 07:46:37;;;;;;;24.95;15.55;;;;;;;;;;4875557;29;20601;-75
2021/03/24 07:49:06;;;;;;;26.48;16.48;;;;;;;;;;4876807;29;20030;-75
2021/03/24 07:51:53;;;;;;;25.63;14.18;;;;;;;;;;4876757;29;20025;-74
2021/03/24 07:54:29;;;;;;;24.15;14.25;;;;;;;;;;4876384;29;20033;-77
2021/03/24 07:56:56;;;;;;;28.70;16.48;;;;;;;;;;4879852;29;20029;-76
2021/03/24 07:59:29;;;;;;;26.73;16.08;;;;;;;;;;4876603;29;20030;-74
2021/03/24 08:02:14;;;;;;;27.05;16.50;;;;;;;;;;4893309;29;20424;-76
2021/03/24 08:04:58;;;;;;;29.33;16.30;;;;;;;;;;4912318;29;20392;-74
2021/03/24 08:07:43;;;;;;;24.67;15.27;;;;;;;;;;4897649;29;20056;-75
2021/03/24 08:10:28;;;;;;;29.42;16.90;;;;;;;;;;4903317;29;20032;-76
2021/03/24 08:13:15;;;;;;;26.45;16.38;;;;;;;;;;4893650;29;20119;-74
2021/03/24 08:15:59;;;;;;;31.40;18.10;;;;;;;;;;4897263;29;20029;-76
2021/03/24 08:18:32;;;;;;;26.13;15.63;;;;;;;;;;4901786;29;20473;-73
2021/03/24 08:21:17;;;;;;;29.70;17.50;;;;;;;;;;4894525;29;20059;-75
2021/03/24 08:23:56;;;;;;;29.40;16.17;;;;;;;;;;4901642;29;20079;-74
2021/03/24 08:26:29;;;;;;;29.10;17.20;;;;;;;;;;4902692;29;20077;-74
2021/03/24 08:29:14;;;;;;;27.90;15.90;;;;;;;;;;4903716;29;20028;-73
2021/03/24 08:31:52;;;;;;;25.25;14.43;;;;;;;;;;4903706;29;20036;-76
2021/03/24 08:34:21;;;;;;;31.38;16.92;;;;;;;;;;4903684;29;20056;-70
2021/03/24 08:37:02;;;;;;;16.40;9.85;;;;;;;;;;4891889;29;20032;-76
2021/03/24 08:39:47;;;;;;;31.52;19.50;;;;;;;;;;4884420;29;20405;-70
2021/03/24 08:42:32;;;;;;;30.90;19.23;;;;;;;;;;4910996;29;20028;-73
2021/03/24 08:45:17;;;;;;;30.20;18.08;;;;;;;;;;4889747;29;20032;-72
2021/03/24 08:47:47;;;;;;;31.67;18.95;;;;;;;;;;4909209;29;20084;-71
2021/03/24 08:50:14;;;;;;;28.20;16.40;;;;;;;;;;4893049;29;20043;-75
2021/03/24 08:53:00;;;;;;;25.33;16.38;;;;;;;;;;4889994;29;20040;-72
2021/03/24 08:55:40;;;;;;;29.05;18.15;;;;;;;;;;4894524;29;20035;-72
2021/03/24 08:58:12;;;;;;;27.23;16.77;;;;;;;;;;4897057;29;20047;-72
2021/03/24 09:00:45;;;;;;;25.13;15.40;;;;;;;;;;4895012;29;20056;-73
2021/03/24 09:03:11;;;;;;;;;;;;;;;;;;4899691;29;20368;-68
2021/03/24 09:05:40;;;;;;;27.52;16.45;;;;;;;;;;4901042;29;20417;-64
2021/03/24 09:08:24;;;;;;;25.98;14.13;;;;;;;;;;4918181;29;20055;-68
2021/03/24 09:11:00;;;;;;;23.52;14.30;;;;;;;;;;4912243;29;20051;-67
2021/03/24 09:13:38;;;;;;;22.05;13.73;;;;;;;;;;4908880;29;20024;-68
2021/03/24 09:16:23;;;;;;;20.33;12.70;;;;;;;;;;4907477;29;20036;-67
2021/03/24 09:18:51;;;;;;;17.55;12.18;;;;;;;;;;4907523;29;20107;-66
2021/03/24 09:21:25;;;;;;;20.08;11.18;;;;;;;;;;4910074;29;20445;-66
2021/03/24 09:24:12;;;;;;;20.10;11.98;;;;;;;;;;4884676;29;20499;-66
2021/03/24 09:26:57;;;;;;;21.25;11.23;;;;;;;;;;4907045;29;20028;-67
2021/03/24 09:29:42;;;;;;;17.73;10.25;;;;;;;;;;4914051;29;20028;-64
2021/03/24 09:32:22;;;;;;;23.90;11.48;;;;;;;;;;4917855;29;20034;-67
2021/03/24 09:35:04;;;;;;;18.98;11.05;;;;;;;;;;4901488;29;20031;-67
2021/03/24 09:37:39;;;;;;;25.98;13.35;;;;;;;;;;4896908;29;20048;-68
2021/03/24 09:40:09;;;;;;;13.65;8.60;;;;;;;;;;4885740;29;20551;-69
2021/03/24 09:42:41;;;;;;;18.05;9.68;;;;;;;;;;4890702;29;20028;-67
2021/03/24 09:45:15;;;;;;;18.92;11.57;;;;;;;;;;4890105;29;20065;-68
2021/03/24 09:48:01;;;;;;;16.90;10.77;;;;;;;;;;4895780;29;20115;-68
2021/03/24 09:50:33;;;;;;;17.17;10.93;;;;;;;;;;4907989;29;20032;-66
2021/03/24 09:53:08;;;;;;;17.55;10.82;;;;;;;;;;4909571;29;20036;-68
2021/03/24 09:55:39;;;;;;;16.38;10.82;;;;;;;;;;4911125;29;20032;-68
2021/03/24 09:58:08;;;;;;;19.65;11.95;;;;;;;;;;4913029;29;20539;-66
2021/03/24 10:00:36;;;;;;;17.65;11.15;;;;;;;;;;4908632;29;20059;-69
2021/03/24 10:03:06;;;;;;;16.10;9.82;;;;;;;;;;4908196;29;20392;-67
2021/03/24 10:05:38;;;;;;;18.23;10.70;;;;;;;;;;4910060;29;20467;-70
2021/03/24 10:08:11;;;;;;;17.25;10.13;;;;;;;;;;4900227;29;20127;-68
2021/03/24 10:10:38;;;;;;;18.20;11.48;;;;;;;;;;4907536;29;20488;-66
2021/03/24 10:13:16;;;;;;;17.27;9.50;;;;;;;;;;4908951;29;20083;-69
2021/03/24 10:15:53;;;;;;;16.50;9.43;;;;;;;;;;4912446;29;20029;-71
2021/03/24 10:18:28;;;;;;;16.27;9.63;;;;;;;;;;4909299;29;20511;-68
2021/03/24 10:21:10;;;;;;;15.15;9.98;;;;;;;;;;4907417;29;20434;-68
2021/03/24 10:23:48;;;;;;;14.98;9.32;;;;;;;;;;4908547;29;20383;-69
2021/03/24 10:26:19;;;;;;;15.48;8.90;;;;;;;;;;4911822;29;20369;-68
2021/03/24 10:29:04;;;;;;;12.45;7.93;;;;;;;;;;4909308;29;20468;-68
2021/03/24 10:31:38;;;;;;;13.07;8.18;;;;;;;;;;4915932;29;20052;-68
2021/03/24 10:34:10;;;;;;;19.35;11.68;;;;;;;;;;4912878;29;20024;-68
2021/03/24 10:36:45;;;;;;;14.85;8.10;;;;;;;;;;4890452;29;20032;-68
2021/03/24 10:39:23;;;;;;;11.73;7.65;;;;;;;;;;4912799;29;20043;-68
2021/03/24 10:42:25;;;;;;;16.23;9.68;;;;;;;;;;4909188;29;20377;-67
2021/03/24 10:44:57;;;;;;;12.38;7.65;;;;;;;;;;4803777;29;20034;-70
2021/03/24 10:47:38;;;;;;;15.88;8.95;;;;;;;;;;4808283;29;20184;-70
2021/03/24 10:50:14;;;;;;;11.85;6.90;;;;;;;;;;4781385;29;20031;-72
2021/03/24 10:53:03;;;;;;;11.63;7.50;;;;;;;;;;4801349;29;20077;-70
2021/03/24 10:55:31;;;;;;;14.85;7.32;;;;;;;;;;4794274;29;20070;-69
2021/03/24 10:58:15;;;;;;;10.35;7.05;;;;;;;;;;4797932;29;20070;-71
2021/03/24 11:00:44;;;;;;;14.05;7.93;;;;;;;;;;4780320;29;20873;-70
2021/03/24 11:03:20;;;;;;;12.95;8.23;;;;;;;;;;4799139;29;20416;-70
2021/03/24 11:05:49;;;;;;;13.90;8.38;;;;;;;;;;4798376;29;20079;-70
2021/03/24 11:08:36;;;;;;;13.65;8.23;;;;;;;;;;4796214;29;20035;-71
2021/03/24 11:11:07;;;;;;;11.88;7.40;;;;;;;;;;4789099;29;20057;-73
2021/03/24 11:13:40;;;;;;;10.60;7.53;;;;;;;;;;4788411;29;20391;-70
2021/03/24 11:16:12;;;;;;;10.35;7.22;;;;;;;;;;4790691;29;20051;-71
2021/03/24 11:18:49;;;;;;;13.98;7.90;;;;;;;;;;4830059;29;20053;-73
2021/03/24 11:21:44;;;;;;;9.23;6.40;;;;;;;;;;4877442;29;20031;-73
2021/03/24 11:24:34;;;;;;;10.30;6.32;;;;;;;;;;4875864;29;20125;-70
2021/03/24 11:27:03;;;;;;;14.98;11.05;;;;;;;;;;4872776;29;20021;-71
2021/03/24 11:29:30;;;;;;;10.18;6.63;;;;;;;;;;4875798;29;20106;-72
2021/03/24 11:32:15;;;;;;;11.50;6.85;;;;;;;;;;4867585;29;20068;-70
2021/03/24 11:34:48;;;;;;;11.55;7.82;;;;;;;;;;4876075;29;20477;-70
2021/03/24 11:37:22;;;;;;;12.07;7.18;;;;;;;;;;4875466;29;20049;-70
2021/03/24 11:39:53;;;;;;;13.07;8.98;;;;;;;;;;4867211;29;20064;-71
2021/03/24 11:42:20;;;;;;;17.58;9.98;;;;;;;;;;4871411;29;20104;-70
2021/03/24 11:44:50;;;;;;;17.25;11.23;;;;;;;;;;4872388;29;20031;-70
2021/03/24 11:47:34;;;;;;;14.60;9.10;;;;;;;;;;4868345;29;20030;-71
2021/03/24 11:50:13;;;;;;;14.57;9.85;;;;;;;;;;4866961;29;20062;-70
2021/03/24 11:52:58;;;;;;;19.17;11.02;;;;;;;;;;4876141;29;20033;-69
2021/03/24 11:55:43;;;;;;;17.75;10.05;;;;;;;;;;4874065;29;20029;-70
2021/03/24 11:58:21;;;;;;;14.98;9.70;;;;;;;;;;4878030;29;20037;-70
2021/03/24 12:01:14;;;;;;;14.27;8.65;;;;;;;;;;4895525;29;20059;-68
2021/03/24 12:03:50;;;;;;;16.95;10.85;;;;;;;;;;4897980;29;20405;-71
2021/03/24 12:06:19;;;;;;;16.52;10.65;;;;;;;;;;4915686;29;20209;-70
2021/03/24 12:08:48;;;;;;;17.55;11.60;;;;;;;;;;4916070;29;20095;-69
2021/03/24 12:11:15;;;;;;;20.33;12.15;;;;;;;;;;4915988;29;20020;-70
2021/03/24 12:13:41;;;;;;;21.42;12.68;;;;;;;;;;4915724;29;20027;-70
2021/03/24 12:16:09;;;;;;;20.45;11.80;;;;;;;;;;4915839;29;20024;-70
2021/03/24 12:18:39;;;;;;;19.73;11.48;;;;;;;;;;4910226;29;20032;-71
2021/03/24 12:21:06;;;;;;;17.88;11.15;;;;;;;;;;4907792;29;20115;-71
2021/03/24 12:23:36;;;;;;;19.77;12.20;;;;;;;;;;4910199;29;20028;-66
2021/03/24 12:26:03;;;;;;;17.52;10.77;;;;;;;;;;4907633;29;20068;-70
2021/03/24 12:28:33;;;;;;;20.00;11.45;;;;;;;;;;4909442;29;20032;-70
2021/03/24 12:31:04;;;;;;;19.30;11.85;;;;;;;;;;4911297;29;20028;-68
2021/03/24 12:33:31;;;;;;;15.25;9.60;;;;;;;;;;4913015;29;20025;-70
2021/03/24 12:36:09;;;;;;;18.15;10.70;;;;;;;;;;4912565;29;20092;-71
2021/03/24 12:38:46;;;;;;;18.95;10.88;;;;;;;;;;4895204;29;20076;-68
2021/03/24 12:41:13;;;;;;;15.15;9.75;;;;;;;;;;4911430;29;20028;-69
2021/03/24 12:43:40;;;;;;;15.18;10.05;;;;;;;;;;4912310;29;20356;-70
2021/03/24 12:46:10;;;;;;;16.95;10.27;;;;;;;;;;4905290;29;20037;-68
2021/03/24 12:48:36;;;;;;;16.88;10.75;;;;;;;;;;4893745;29;20085;-70
2021/03/24 12:51:11;;;;;;;16.58;10.73;;;;;;;;;;4900195;29;20122;-71
2021/03/24 12:53:49;;;;;;;16.35;10.10;;;;;;;;;;4907116;29;20443;-70
2021/03/24 12:56:15;;;;;;;21.02;11.02;;;;;;;;;;4896531;29;20029;-70
2021/03/24 12:58:48;;;;;;;17.23;10.80;;;;;;;;;;4895865;29;20088;-73
2021/03/24 13:01:33;;;;;;;16.48;11.48;;;;;;;;;;4911791;29;20515;-72
2021/03/24 13:04:05;;;;;;;15.30;10.77;;;;;;;;;;4894874;29;20128;-74
2021/03/24 13:06:48;;;;;;;19.77;11.88;;;;;;;;;;4912824;29;20073;-72
2021/03/24 13:09:14;;;;;;;19.13;11.40;;;;;;;;;;4916991;29;20095;-71
2021/03/24 13:11:44;;;;;;;19.73;10.73;;;;;;;;;;4901210;29;20031;-71
2021/03/24 13:14:24;;;;;;;19.85;11.10;;;;;;;;;;4917280;29;20365;-71
2021/03/24 13:17:11;;;;;;;17.58;10.75;;;;;;;;;;4917233;29;20039;-71
2021/03/24 13:19:44;;;;;;;19.27;11.48;;;;;;;;;;4887306;29;20052;-70
2021/03/24 13:22:10;;;;;;;18.05;10.98;;;;;;;;;;4901143;29;20028;-70
2021/03/24 13:25:02;;;;;;;16.42;10.38;;;;;;;;;;4901112;29;20060;-70
2021/03/24 13:27:47;;;;;;;15.25;10.18;;;;;;;;;;4911552;29;20040;-70
2021/03/24 13:30:23;;;;;;;17.88;9.45;;;;;;;;;;4915490;29;20024;-69
2021/03/24 13:32:54;;;;;;;15.02;8.07;;;;;;;;;;4917032;29;20021;-71
2021/03/24 13:35:34;;;;;;;11.80;8.50;;;;;;;;;;4917045;29;20020;-70
2021/03/24 13:38:01;;;;;;;17.48;8.95;;;;;;;;;;4916685;29;20400;-71
2021/03/24 13:40:32;;;;;;;14.20;8.10;;;;;;;;;;4901478;29;20148;-70
2021/03/24 13:43:02;;;;;;;15.75;8.63;;;;;;;;;;4916612;29;20472;-67
2021/03/24 13:45:28;;;;;;;15.93;8.48;;;;;;;;;;4901484;29;20024;-69
2021/03/24 13:48:00;;;;;;;12.27;8.02;;;;;;;;;;4918057;29;20403;-69
2021/03/24 13:50:47;;;;;;;14.98;8.82;;;;;;;;;;4917358;29;20384;-68
2021/03/24 13:53:36;;;;;;;15.48;9.40;;;;;;;;;;4918072;29;20020;-68
2021/03/24 13:56:02;;;;;;;15.13;9.32;;;;;;;;;;4859855;29;20046;-66
2021/03/24 13:58:39;;;;;;;15.63;8.48;;;;;;;;;;4860020;29;20517;-68
2021/03/24 14:01:24;;;;;;;15.65;8.93;;;;;;;;;;4859575;29;20054;-67
2021/03/24 14:03:50;;;;;;;14.20;8.38;;;;;;;;;;4843052;29;20550;-69
2021/03/24 14:06:27;;;;;;;16.85;9.48;;;;;;;;;;4859564;29;20506;-68
2021/03/24 14:09:08;;;;;;;16.33;9.73;;;;;;;;;;4860397;29;20041;-68
2021/03/24 14:11:43;;;;;;;12.43;7.90;;;;;;;;;;4858940;29;20110;-68
2021/03/24 14:14:24;;;;;;;13.23;8.10;;;;;;;;;;4859655;29;20065;-68
2021/03/24 14:16:54;;;;;;;15.25;8.27;;;;;;;;;;4858634;29;20098;-68
2021/03/24 14:19:38;;;;;;;14.52;8.10;;;;;;;;;;4849257;29;20525;-68
2021/03/24 14:22:10;;;;;;;12.63;7.25;;;;;;;;;;4859909;29;20056;-66
2021/03/24 14:24:47;;;;;;;10.25;6.65;;;;;;;;;;4860223;29;20042;-65
2021/03/24 14:27:21;;;;;;;13.15;7.78;;;;;;;;;;4860318;29;20069;-66
2021/03/24 14:29:52;;;;;;;16.00;8.48;;;;;;;;;;4860312;29;20034;-68
2021/03/24 14:32:23;;;;;;;16.33;8.18;;;;;;;;;;4867923;29;20036;-66
2021/03/24 14:34:50;;;;;;;12.45;7.57;;;;;;;;;;4912364;29;20036;-67
2021/03/24 14:37:16;;;;;;;10.30;7.20;;;;;;;;;;4918859;29;20051;-67
2021/03/24 14:39:54;;;;;;;11.48;7.40;;;;;;;;;;4918383;29;20115;-68
2021/03/24 14:42:39;;;;;;;11.60;7.20;;;;;;;;;;4918010;29;20028;-68
2021/03/24 14:45:20;;;;;;;11.75;6.80;;;;;;;;;;4901434;29;20417;-67
2021/03/24 14:47:46;;;;;;;18.55;9.80;;;;;;;;;;4918529;29;20039;-67
2021/03/24 14:50:16;;;;;;;12.57;7.35;;;;;;;;;;4917110;29;20020;-68
2021/03/24 14:52:48;;;;;;;11.25;6.75;;;;;;;;;;4916678;29;20551;-67
2021/03/24 14:55:23;;;;;;;15.23;7.93;;;;;;;;;;4916507;29;20433;-66
2021/03/24 14:57:50;;;;;;;13.52;7.65;;;;;;;;;;4900093;29;20039;-67
2021/03/24 15:00:25;;;;;;;11.10;6.90;;;;;;;;;;4916925;29;20067;-67
2021/03/24 15:03:04;;;;;;;10.85;6.43;;;;;;;;;;4896935;29;20032;-70
2021/03/24 15:05:34;;;;;;;10.60;6.22;;;;;;;;;;4899193;29;20137;-67
2021/03/24 15:08:19;;;;;;;11.85;6.85;;;;;;;;;;4916716;29;20349;-70
2021/03/24 15:10:55;;;;;;;14.30;6.93;;;;;;;;;;4916485;29;20056;-70
2021/03/24 15:13:51;;;;;;;14.32;6.90;;;;;;;;;;4897930;29;20052;-71
2021/03/24 15:16:36;;;;;;;10.07;5.75;;;;;;;;;;4897133;29;20564;-69
2021/03/24 15:19:02;;;;;;;10.32;5.03;;;;;;;;;;4915174;29;20032;-71
2021/03/24 15:21:31;;;;;;;8.55;5.38;;;;;;;;;;4899841;29;20028;-67
2021/03/24 15:23:59;;;;;;;10.35;6.43;;;;;;;;;;4915897;29;20102;-68
2021/03/24 15:26:44;;;;;;;8.70;5.60;;;;;;;;;;4911718;29;20028;-67
2021/03/24 15:29:13;;;;;;;9.05;5.82;;;;;;;;;;4912316;29;20052;-69
2021/03/24 15:31:59;;;;;;;11.25;5.43;;;;;;;;;;4895458;29;20481;-69
2021/03/24 15:34:37;;;;;;;8.52;5.40;;;;;;;;;;4888968;29;20546;-67
2021/03/24 15:37:06;;;;;;;9.65;5.72;;;;;;;;;;4902031;29;20616;-69
2021/03/24 15:39:56;;;;;;;11.20;5.13;;;;;;;;;;4897618;29;20108;-69
2021/03/24 15:42:40;;;;;;;9.82;5.65;;;;;;;;;;4896811;29;20025;-70
2021/03/24 15:45:24;;;;;;;12.73;5.30;;;;;;;;;;4881320;29;20031;-70
2021/03/24 15:47:51;;;;;;;9.32;4.78;;;;;;;;;;4897155;29;20461;-68
2021/03/24 15:50:17;;;;;;;7.65;4.65;;;;;;;;;;4897351;29;20036;-70
2021/03/24 15:52:53;;;;;;;8.90;5.15;;;;;;;;;;4897886;29;20028;-68
2021/03/24 15:55:24;;;;;;;12.88;5.55;;;;;;;;;;4898324;29;20044;-70
2021/03/24 15:58:09;;;;;;;7.93;5.15;;;;;;;;;;4898297;29;20025;-71
2021/03/24 16:00:35;;;;;;;10.40;4.95;;;;;;;;;;4881267;29;20548;-72
2021/03/24 16:03:11;;;;;;;9.63;4.55;;;;;;;;;;4898190;29;20133;-71
2021/03/24 16:05:40;;;;;;;12.95;5.10;;;;;;;;;;4898413;29;20021;-71
2021/03/24 16:08:26;;;;;;;11.98;5.40;;;;;;;;;;4898132;29;20025;-71
2021/03/24 16:11:11;;;;;;;9.23;5.03;;;;;;;;;;4898825;29;20032;-70
2021/03/24 16:13:47;;;;;;;12.20;5.10;;;;;;;;;;4881336;29;20039;-71
2021/03/24 16:16:16;;;;;;;8.40;4.90;;;;;;;;;;4884637;29;20031;-70
2021/03/24 16:18:42;;;;;;;10.98;5.07;;;;;;;;;;4901763;29;20032;-70
2021/03/24 16:21:27;;;;;;;14.38;5.88;;;;;;;;;;4917649;29;20517;-69
2021/03/24 16:23:56;;;;;;;10.10;5.60;;;;;;;;;;4918886;29;20024;-70
2021/03/24 16:26:41;;;;;;;9.55;5.10;;;;;;;;;;4919279;29;20106;-70
2021/03/24 16:29:08;;;;;;;10.25;5.28;;;;;;;;;;4918493;29;20063;-69
2021/03/24 16:31:40;;;;;;;10.80;6.43;;;;;;;;;;4920210;29;20028;-70
2021/03/24 16:34:15;;;;;;;13.65;6.97;;;;;;;;;;4920439;29;20040;-69
2021/03/24 16:37:00;;;;;;;11.18;6.03;;;;;;;;;;4920452;29;20535;-69
2021/03/24 16:39:52;;;;;;;7.93;4.75;;;;;;;;;;4918652;29;20032;-68
2021/03/24 16:42:21;;;;;;;11.20;6.03;;;;;;;;;;4920010;29;20095;-68
2021/03/24 16:44:47;;;;;;;9.30;5.15;;;;;;;;;;4920840;29;20115;-69
2021/03/24 16:47:13;;;;;;;11.52;5.88;;;;;;;;;;4902981;29;20428;-70
2021/03/24 16:49:58;;;;;;;11.63;5.50;;;;;;;;;;4919085;29;20032;-69
2021/03/24 16:52:42;;;;;;;8.18;5.30;;;;;;;;;;4919057;29;20028;-70
2021/03/24 16:55:21;;;;;;;12.55;6.05;;;;;;;;;;4902719;29;20577;-70
2021/03/24 16:58:02;;;;;;;13.27;7.32;;;;;;;;;;4901553;29;20088;-71
2021/03/24 17:00:37;;;;;;;10.55;5.72;;;;;;;;;;4920231;29;20171;-69
2021/03/24 17:03:10;;;;;;;13.95;6.30;;;;;;;;;;4920299;29;20107;-69
2021/03/24 17:05:43;;;;;;;14.77;8.80;;;;;;;;;;4919903;29;20032;-68
2021/03/24 17:08:08;;;;;;;;;;;;;;;;;;4919838;29;20020;-69
2021/03/24 17:10:48;;;;;;;24.38;11.10;;;;;;;;;;4919379;29;19914;-69
2021/03/24 17:13:22;;;;;;;19.67;10.32;;;;;;;;;;4917722;29;20123;-69
2021/03/24 17:15:55;;;;;;;21.40;11.90;;;;;;;;;;4915650;29;20107;-70
2021/03/24 17:18:42;;;;;;;22.92;12.73;;;;;;;;;;4911636;29;20044;-69
2021/03/24 17:21:27;;;;;;;24.67;14.32;;;;;;;;;;4900800;29;20032;-70
2021/03/24 17:24:07;;;;;;;23.20;13.10;;;;;;;;;;4919428;29;20063;-69
2021/03/24 17:26:35;;;;;;;33.85;17.80;;;;;;;;;;4914514;29;20028;-69
2021/03/24 17:29:20;;;;;;;28.60;17.33;;;;;;;;;;4919559;29;20099;-68
2021/03/24 17:32:00;;;;;;;35.53;20.50;;;;;;;;;;4914519;29;20036;-69
2021/03/24 17:34:35;;;;;;;42.45;25.02;;;;;;;;;;4917406;29;20024;-69
2021/03/24 17:37:10;;;;;;;25.70;13.20;;;;;;;;;;4914788;29;20083;-70
2021/03/24 17:39:40;;;;;;;32.50;18.15;;;;;;;;;;4914427;29;20073;-77
2021/03/24 17:42:15;;;;;;;38.10;24.42;;;;;;;;;;4899544;29;20105;-75
2021/03/24 17:44:47;;;;;;;25.42;13.13;;;;;;;;;;4901114;29;20076;-75
2021/03/24 17:47:22;;;;;;;16.10;8.77;;;;;;;;;;4893494;29;20062;-73
2021/03/24 17:49:53;;;;;;;18.17;8.93;;;;;;;;;;4906517;29;20071;-75
2021/03/24 17:52:32;;;;;;;18.27;8.57;;;;;;;;;;4893466;29;20088;-73
2021/03/24 17:55:19;;;;;;;20.80;10.05;;;;;;;;;;4891393;29;20028;-72
2021/03/24 17:58:04;;;;;;;24.77;11.00;;;;;;;;;;4893476;29;20062;-78
2021/03/24 18:00:46;;;;;;;19.20;10.15;;;;;;;;;;4892542;29;20150;-77
2021/03/24 18:03:20;;;;;;;18.00;10.27;;;;;;;;;;4884446;29;20458;-73
2021/03/24 18:05:58;;;;;;;19.77;10.05;;;;;;;;;;4888477;29;20036;-75
2021/03/24 18:08:30;;;;;;;18.60;9.20;;;;;;;;;;4892419;29;20028;-74
2021/03/24 18:10:56;;;;;;;;;;;;;;;;;;4899816;29;20669;-74
2021/03/24 18:13:24;;;;;;;22.77;10.27;;;;;;;;;;4897510;29;19994;-74
2021/03/24 18:15:51;;;;;;;19.45;10.73;;;;;;;;;;4896182;29;20035;-76
2021/03/24 18:18:20;;;;;;;22.67;11.60;;;;;;;;;;4898065;29;20429;-70
2021/03/24 18:21:01;;;;;;;29.48;12.40;;;;;;;;;;4898568;29;20029;-74
2021/03/24 18:23:32;;;;;;;32.17;12.90;;;;;;;;;;4895847;29;20038;-72
2021/03/24 18:25:59;;;;;;;33.50;15.70;;;;;;;;;;4887136;29;20043;-72
2021/03/24 18:28:27;;;;;;;33.50;16.20;;;;;;;;;;4883484;29;20396;-73
2021/03/24 18:30:56;;;;;;;42.65;20.73;;;;;;;;;;4884259;29;20025;-72
2021/03/24 18:33:25;;;;;;;59.92;29.27;;;;;;;;;;4885654;29;20028;-70
2021/03/24 18:36:11;;;;;;;37.65;19.10;;;;;;;;;;4889749;29;20028;-72
2021/03/24 18:38:37;;;;;;;36.38;17.63;;;;;;;;;;4890076;29;20084;-74
2021/03/24 18:41:03;;;;;;;32.72;16.42;;;;;;;;;;4892356;29;20414;-73
2021/03/24 18:43:30;;;;;;;31.25;15.80;;;;;;;;;;4881820;29;20187;-71
2021/03/24 18:46:03;;;;;;;31.05;15.07;;;;;;;;;;4886838;29;20120;-72
2021/03/24 18:48:38;;;;;;;29.23;13.90;;;;;;;;;;4882506;29;20088;-72
2021/03/24 18:51:22;;;;;;;29.90;14.65;;;;;;;;;;4887805;29;20107;-74
2021/03/24 18:53:54;;;;;;;34.60;15.43;;;;;;;;;;4885931;29;20504;-74
2021/03/24 18:56:26;;;;;;;43.25;19.00;;;;;;;;;;4894934;29;20416;-73
2021/03/24 18:58:59;;;;;;;41.78;18.48;;;;;;;;;;4898451;29;20029;-73
2021/03/24 19:01:25;;;;;;;38.90;18.17;;;;;;;;;;4906996;29;20090;-72
2021/03/24 19:03:52;;;;;;;58.95;28.17;;;;;;;;;;4917779;29;20555;-70
2021/03/24 19:06:19;;;;;;;36.15;17.33;;;;;;;;;;4917987;29;20032;-68
2021/03/24 19:09:04;;;;;;;31.20;13.68;;;;;;;;;;4916691;29;20463;-69
2021/03/24 19:11:30;;;;;;;30.88;14.15;;;;;;;;;;4898775;29;20397;-70
2021/03/24 19:13:56;;;;;;;27.98;12.68;;;;;;;;;;4898661;29;20020;-69
2021/03/24 19:16:22;;;;;;;31.38;15.68;;;;;;;;;;4886594;29;20357;-69
2021/03/24 19:18:49;;;;;;;38.00;19.52;;;;;;;;;;4917204;29;20028;-69
2021/03/24 19:21:21;;;;;;;39.72;19.75;;;;;;;;;;4917285;29;20049;-69
2021/03/24 19:24:06;;;;;;;28.97;14.70;;;;;;;;;;4900333;29;20087;-67
2021/03/24 19:26:35;;;;;;;25.10;11.90;;;;;;;;;;4915122;29;20480;-68
2021/03/24 19:29:13;;;;;;;23.33;11.00;;;;;;;;;;4916846;29;20027;-71
2021/03/24 19:31:40;;;;;;;20.10;9.05;;;;;;;;;;4916464;29;20027;-69
2021/03/24 19:34:16;;;;;;;22.58;9.75;;;;;;;;;;4899578;29;20475;-69
2021/03/24 19:36:56;;;;;;;27.30;12.13;;;;;;;;;;4914076;29;20043;-69
2021/03/24 19:39:22;;;;;;;29.33;11.45;;;;;;;;;;4899129;29;20031;-69
2021/03/24 19:41:49;;;;;;;30.88;12.65;;;;;;;;;;4915771;29;20435;-71
2021/03/24 19:44:34;;;;;;;30.15;12.82;;;;;;;;;;4916702;29;20026;-68
2021/03/24 19:47:00;;;;;;;37.60;16.73;;;;;;;;;;4896724;29;20032;-68
2021/03/24 19:49:31;;;;;;;37.33;16.63;;;;;;;;;;4900612;29;20060;-64
2021/03/24 19:52:03;;;;;;;35.05;14.52;;;;;;;;;;4916900;29;20032;-67
2021/03/24 19:54:32;;;;;;;36.00;13.20;;;;;;;;;;4914180;29;20112;-68
2021/03/24 19:57:04;;;;;;;37.47;15.10;;;;;;;;;;4912470;29;20031;-67
2021/03/24 19:59:39;;;;;;;38.05;18.13;;;;;;;;;;4919735;29;20046;-66
2021/03/24 20:02:18;;;;;;;33.08;15.77;;;;;;;;;;4918548;29;20048;-68
2021/03/24 20:04:49;;;;;;;40.45;18.52;;;;;;;;;;4919263;29;20080;-68
2021/03/24 20:07:24;;;;;;;45.88;19.33;;;;;;;;;;4920651;29;20027;-67
2021/03/24 20:09:54;;;;;;;26.50;12.23;;;;;;;;;;4920253;29;20021;-67
2021/03/24 20:12:45;;;;;;;38.13;17.83;;;;;;;;;;4919942;29;20028;-69
2021/03/24 20:15:19;;;;;;;28.23;13.55;;;;;;;;;;4914144;29;20051;-69
2021/03/24 20:17:46;;;;;;;22.67;9.52;;;;;;;;;;4893429;29;20039;-68
2021/03/24 20:20:26;;;;;;;19.80;9.50;;;;;;;;;;4902324;29;20035;-69
2021/03/24 20:22:53;;;;;;;21.88;10.05;;;;;;;;;;4920418;29;20039;-71
2021/03/24 20:25:21;;;;;;;26.58;11.43;;;;;;;;;;4902426;29;20375;-72
2021/03/24 20:27:48;;;;;;;44.80;17.27;;;;;;;;;;4901213;29;21004;-70
2021/03/24 20:30:18;;;;;;;25.38;10.80;;;;;;;;;;4902222;29;20020;-70
2021/03/24 20:32:47;;;;;;;99.72;34.40;;;;;;;;;;4916705;29;20092;-70
2021/03/24 20:35:29;;;;;;;68.15;25.52;;;;;;;;;;4919532;29;20391;-68
2021/03/24 20:38:00;;;;;;;78.45;30.75;;;;;;;;;;4920274;29;20032;-70
2021/03/24 20:40:38;;;;;;;36.25;15.43;;;;;;;;;;4916489;29;20057;-71
2021/03/24 20:43:04;;;;;;;37.58;15.73;;;;;;;;;;4901273;29;20024;-72
2021/03/24 20:45:30;;;;;;;32.10;13.45;;;;;;;;;;4915180;29;20032;-70
2021/03/24 20:47:57;;;;;;;21.20;9.57;;;;;;;;;;4918287;29;20507;-69
2021/03/24 20:50:29;;;;;;;20.58;8.52;;;;;;;;;;4902972;29;20072;-72
2021/03/24 20:52:55;;;;;;;17.35;8.15;;;;;;;;;;4902744;29;20024;-71
2021/03/24 20:55:22;;;;;;;16.23;6.97;;;;;;;;;;4902484;29;20035;-68
2021/03/24 20:57:48;;;;;;;13.43;6.63;;;;;;;;;;4902714;29;20028;-71
2021/03/24 21:00:20;;;;;;;12.85;5.97;;;;;;;;;;4901607;29;20484;-71
2021/03/24 21:02:46;;;;;;;12.90;5.20;;;;;;;;;;4900493;29;20375;-70
2021/03/24 21:05:13;;;;;;;12.27;5.50;;;;;;;;;;4902458;29;20032;-69
2021/03/24 21:07:39;;;;;;;14.95;6.38;;;;;;;;;;4902413;29;20476;-70
2021/03/24 21:10:06;;;;;;;17.75;7.32;;;;;;;;;;4902624;29;20032;-70
2021/03/24 21:12:32;;;;;;;13.93;6.28;;;;;;;;;;4897791;29;20020;-72
2021/03/24 21:14:58;;;;;;;14.27;6.80;;;;;;;;;;4919177;29;20052;-73
2021/03/24 21:17:30;;;;;;;15.68;7.10;;;;;;;;;;4919393;29;20056;-70
2021/03/24 21:19:57;;;;;;;17.38;7.32;;;;;;;;;;4919561;29;20472;-70
2021/03/24 21:22:23;;;;;;;27.63;12.15;;;;;;;;;;4918682;29;20017;-71
2021/03/24 21:24:49;;;;;;;25.13;11.90;;;;;;;;;;4901571;29;20372;-69
2021/03/24 21:27:15;;;;;;;31.30;15.10;;;;;;;;;;4918960;29;20028;-71
2021/03/24 21:29:41;;;;;;;13.95;7.07;;;;;;;;;;4902156;29;20032;-70
2021/03/24 21:32:08;;;;;;;22.63;10.70;;;;;;;;;;4918856;29;20043;-69
2021/03/24 21:34:34;;;;;;;20.02;9.57;;;;;;;;;;4918252;29;20024;-69
2021/03/24 21:37:01;;;;;;;17.15;8.48;;;;;;;;;;4918118;29;20039;-70
2021/03/24 21:39:27;;;;;;;23.77;9.82;;;;;;;;;;4918230;29;20036;-68
2021/03/24 21:41:53;;;;;;;12.57;5.60;;;;;;;;;;4919035;29;20016;-70
2021/03/24 21:44:25;;;;;;;17.27;7.47;;;;;;;;;;4918934;29;20028;-69
2021/03/24 21:46:53;;;;;;;26.40;11.70;;;;;;;;;;4919241;29;20107;-70
2021/03/24 21:49:21;;;;;;;12.07;6.03;;;;;;;;;;4918646;29;20068;-69
2021/03/24 21:51:47;;;;;;;24.48;11.60;;;;;;;;;;4918859;29;20034;-71
2021/03/24 21:54:13;;;;;;;16.65;8.00;;;;;;;;;;4917837;29;20084;-69
2021/03/24 21:56:58;;;;;;;20.67;9.05;;;;;;;;;;4900300;29;20383;-71